Time;durP1;ratioP1;P1;durP2;ratioP2;P2;SDS_P1;SDS_P2;PMS_P1;PMS_P2;Temp;Humidity;BMP_temperature;BMP_pressure;BME280_temperature;BME280_humidity;BME280_pressure;Samples;Min_cycle;Max_cycle;Signal;HPM_P1;HPM_P2
2023/09/19 00:02:39;;;;;;;3.47;1.70;;;;;;;22.80;55.71;98305.34;6877451;28;20280;-84
2023/09/19 00:06:01;;;;;;;1.77;1.47;;;;;;;21.86;56.90;98266.91;6877317;28;20660;-84
2023/09/19 00:09:25;;;;;;;1.60;1.27;;;;;;;22.00;57.34;98301.63;6880222;28;20612;-84
2023/09/19 00:12:47;;;;;;;1.53;1.43;;;;;;;22.70;56.48;98347.53;6883035;28;20230;-83
2023/09/19 00:16:10;;;;;;;2.33;1.47;;;;;;;22.61;56.66;98348.47;6884293;28;20210;-84
2023/09/19 00:19:33;;;;;;;1.47;1.37;;;;;;;22.33;55.96;98288.88;6884462;28;20828;-83
2023/09/19 00:22:55;;;;;;;1.67;1.37;;;;;;;22.68;56.26;98377.25;6883193;28;20235;-85
2023/09/19 00:26:18;;;;;;;1.40;1.30;;;;;;;22.52;55.70;98322.75;6884075;28;20705;-84
2023/09/19 00:29:39;;;;;;;1.73;1.50;;;;;;;22.02;56.96;98337.03;6881623;28;20235;-84
2023/09/19 00:33:05;;;;;;;2.17;1.57;;;;;;;21.85;56.82;98277.09;6885483;28;20250;-84
2023/09/19 00:36:29;;;;;;;2.00;1.23;;;;;;;22.21;56.94;98357.97;6879918;28;20210;-84
2023/09/19 00:39:50;;;;;;;2.77;1.43;;;;;;;21.69;57.93;98343.34;6877159;28;20213;-84
2023/09/19 00:43:12;;;;;;;1.60;1.30;;;;;;;22.03;57.80;98363.38;6875419;28;20237;-84
2023/09/19 00:46:33;;;;;;;1.47;1.37;;;;;;;22.38;56.78;98380.31;6876070;28;20328;-83
2023/09/19 00:49:55;;;;;;;1.43;1.33;;;;;;;21.69;56.52;98288.47;6876880;28;20614;-84
2023/09/19 00:53:22;;;;;;;1.30;1.20;;;;;;;22.16;56.89;98380.00;6852712;28;20603;-84
2023/09/19 00:56:44;;;;;;;1.23;1.13;;;;;;;21.99;56.58;98357.63;6850274;29;20222;-83
2023/09/19 01:00:08;;;;;;;1.40;1.30;;;;;;;22.07;57.05;98376.22;6866662;28;20202;-83
2023/09/19 01:03:29;;;;;;;1.40;1.30;;;;;;;21.55;57.07;98274.56;6879909;28;20229;-83
2023/09/19 01:06:53;;;;;;;1.53;1.40;;;;;;;21.98;56.49;98338.69;6883212;28;20205;-85
2023/09/19 01:10:19;;;;;;;2.33;1.50;;;;;;;22.17;56.14;98339.59;6882236;28;20231;-84
2023/09/19 01:13:49;;;;;;;1.40;1.30;;;;;;;22.05;55.40;98375.69;6882783;28;20241;-85
2023/09/19 01:17:17;;;;;;;2.37;1.20;;;;;;;21.85;56.03;98370.41;6883853;28;20225;-84
2023/09/19 01:20:41;;;;;;;1.27;1.20;;;;;;;21.96;55.52;98352.72;6883198;28;20212;-84
2023/09/19 01:24:28;;;;;;;4.63;1.70;;;;;;;22.25;54.95;98375.50;6878693;28;20245;-84
2023/09/19 01:28:25;;;;;;;2.67;1.07;;;;;;;22.52;55.07;98403.25;6876955;28;20195;-84
2023/09/19 01:31:48;;;;;;;1.40;1.30;;;;;;;22.21;55.27;98410.16;6843984;28;20335;-84
2023/09/19 01:35:13;;;;;;;2.27;1.10;;;;;;;22.10;54.75;98361.94;6879020;28;20243;-84
2023/09/19 01:38:34;;;;;;;1.40;1.30;;;;;;;21.95;55.54;98367.56;6880130;28;20266;-84
2023/09/19 01:42:04;;;;;;;3.90;1.40;;;;;;;22.46;53.92;98376.97;6878847;28;20256;-85
2023/09/19 01:45:33;;;;;;;2.80;1.50;;;;;;;22.22;55.10;98408.22;6881466;28;20215;-84
2023/09/19 01:49:03;;;;;;;2.27;1.30;;;;;;;22.11;54.27;98362.72;6879510;28;20201;-84
2023/09/19 01:52:29;;;;;;;1.60;1.50;;;;;;;22.26;54.53;98377.16;6879217;28;20243;-83
2023/09/19 01:55:51;;;;;;;1.50;1.40;;;;;;;22.52;54.37;98422.50;6880982;28;20204;-85
2023/09/19 01:59:14;;;;;;;1.43;1.33;;;;;;;22.45;54.06;98388.22;6881901;28;20708;-85
2023/09/19 02:02:37;;;;;;;1.30;1.20;;;;;;;22.51;54.04;98409.03;6880406;28;20233;-85
2023/09/19 02:06:00;;;;;;;1.10;1.10;;;;;;;21.82;54.66;98365.47;6881060;28;20209;-84
2023/09/19 02:09:22;;;;;;;2.27;1.63;;;;;;;22.62;53.98;98430.66;6882166;28;20271;-84
2023/09/19 02:12:44;;;;;;;1.93;1.23;;;;;;;22.11;54.29;98371.78;6880558;28;20230;-83
2023/09/19 02:16:07;;;;;;;1.40;1.30;;;;;;;22.58;53.11;98393.84;6882164;28;20206;-84
2023/09/19 02:19:29;;;;;;;2.03;1.10;;;;;;;22.43;53.74;98428.91;6881738;28;20305;-83
2023/09/19 02:22:53;;;;;;;1.93;1.30;;;;;;;22.22;54.94;98455.72;6882010;28;20321;-84
2023/09/19 02:26:16;;;;;;;1.83;1.30;;;;;;;22.79;53.65;98433.75;6882234;28;20265;-84
2023/09/19 02:29:37;;;;;;;1.60;1.50;;;;;;;21.90;54.02;98337.41;6882041;28;20589;-86
2023/09/19 02:33:01;;;;;;;1.10;1.00;;;;;;;22.46;53.28;98379.69;6881268;28;20668;-85
2023/09/19 02:36:23;;;;;;;1.47;1.37;;;;;;;22.14;54.37;98406.09;6884201;28;20244;-83
2023/09/19 02:39:46;;;;;;;1.50;1.40;;;;;;;22.00;54.41;98378.50;6883774;28;20239;-84
2023/09/19 02:43:09;;;;;;;1.57;1.47;;;;;;;22.44;53.57;98397.59;6882418;28;20713;-83
2023/09/19 02:46:30;;;;;;;1.53;1.20;;;;;;;22.64;53.42;98402.84;6883346;28;20209;-84
2023/09/19 02:49:52;;;;;;;1.27;1.10;;;;;;;22.67;53.43;98425.06;6883197;28;20205;-84
2023/09/19 02:53:13;;;;;;;2.60;1.10;;;;;;;22.43;53.63;98424.22;6882122;28;20223;-84
2023/09/19 02:56:37;;;;;;;1.60;1.30;;;;;;;22.05;55.10;98438.03;6883084;28;20205;-85
2023/09/19 03:00:00;;;;;;;1.30;1.20;;;;;;;21.99;55.05;98401.56;6883200;28;20203;-84
2023/09/19 03:03:22;;;;;;;1.77;1.67;;;;;;;22.30;54.67;98462.53;6882912;28;20256;-86
2023/09/19 03:06:44;;;;;;;2.03;1.10;;;;;;;22.10;54.73;98441.56;6884228;28;20214;-84
2023/09/19 03:10:07;;;;;;;3.77;1.40;;;;;;;21.85;55.61;98427.22;6884302;28;20206;-85
2023/09/19 03:13:31;;;;;;;2.40;1.80;;;;;;;22.21;55.75;98478.81;6883847;28;20235;-84
2023/09/19 03:16:52;;;;;;;1.83;1.40;;;;;;;21.70;55.93;98416.34;6884593;28;20216;-84
2023/09/19 03:20:17;;;;;;;2.17;1.50;;;;;;;22.41;55.39;98486.03;6885207;28;20210;-85
2023/09/19 03:23:39;;;;;;;1.40;1.30;;;;;;;22.73;53.75;98445.09;6884634;28;20226;-84
2023/09/19 03:27:02;;;;;;;1.67;1.27;;;;;;;22.60;53.42;98399.06;6866156;28;20213;-83
2023/09/19 03:30:26;;;;;;;1.60;1.40;;;;;;;22.04;54.32;98343.03;6882449;28;20225;-84
2023/09/19 03:33:47;;;;;;;4.63;1.83;;;;;;;22.55;54.34;98448.59;6885827;28;20220;-85
2023/09/19 03:37:09;;;;;;;1.27;1.20;;;;;;;22.74;53.93;98443.97;6886867;28;20198;-84
2023/09/19 03:40:31;;;;;;;1.60;1.50;;;;;;;22.89;53.45;98460.31;6887171;28;20214;-84
2023/09/19 03:43:52;;;;;;;3.37;1.63;;;;;;;22.39;54.97;98450.63;6879195;28;20627;-84
2023/09/19 03:47:15;;;;;;;1.57;1.47;;;;;;;22.70;54.53;98457.47;6869022;28;20202;-85
2023/09/19 03:50:37;;;;;;;1.40;1.40;;;;;;;22.47;53.86;98417.06;6868997;28;20819;-84
2023/09/19 03:53:58;;;;;;;2.00;1.40;;;;;;;22.11;55.02;98432.22;6870334;28;20230;-85
2023/09/19 03:57:20;;;;;;;2.57;1.60;;;;;;;22.76;54.22;98470.06;6868348;28;20210;-84
2023/09/19 04:00:42;;;;;;;2.20;1.70;;;;;;;22.88;53.18;98459.47;6866116;28;20575;-84
2023/09/19 04:04:08;;;;;;;2.30;1.67;;;;;;;22.62;54.47;98466.38;6868448;28;20723;-84
2023/09/19 04:07:30;;;;;;;3.87;1.70;;;;;;;22.49;53.97;98419.53;6870997;28;20219;-84
2023/09/19 04:10:52;;;;;;;2.40;1.43;;;;;;;22.98;53.51;98470.38;6879888;28;20248;-84
2023/09/19 04:14:14;;;;;;;2.30;1.60;;;;;;;22.50;54.32;98451.38;6886333;28;20257;-85
2023/09/19 04:17:35;;;;;;;3.03;1.80;;;;;;;22.88;54.23;98484.22;6887236;28;20226;-84
2023/09/19 04:20:59;;;;;;;2.20;1.47;;;;;;;22.91;54.09;98491.91;6886469;28;20210;-85
2023/09/19 04:24:21;;;;;;;1.50;1.40;;;;;;;22.22;55.69;98466.72;6868971;28;20252;-84
2023/09/19 04:27:43;;;;;;;3.47;1.63;;;;;;;22.33;54.95;98443.53;6870137;28;20297;-84
2023/09/19 04:31:05;;;;;;;3.43;1.60;;;;;;;22.58;54.46;98448.81;6869247;28;20357;-85
2023/09/19 04:34:27;;;;;;;1.83;1.60;;;;;;;22.61;55.11;98505.94;6869784;28;20322;-85
2023/09/19 04:37:51;;;;;;;1.80;1.50;;;;;;;21.69;56.12;98407.31;6869941;28;20210;-84
2023/09/19 04:41:13;;;;;;;2.00;1.70;;;;;;;22.35;55.83;98504.50;6868858;28;20208;-84
2023/09/19 04:44:34;;;;;;;2.03;1.83;;;;;;;22.05;57.12;98499.25;6868374;28;20647;-84
2023/09/19 04:47:56;;;;;;;2.13;1.83;;;;;;;22.28;57.08;98494.94;6869686;28;20209;-86
2023/09/19 04:51:18;;;;;;;1.60;1.50;;;;;;;22.38;56.32;98505.84;6868871;28;20228;-85
2023/09/19 04:54:41;;;;;;;1.80;1.67;;;;;;;22.17;56.89;98496.13;6869138;28;20694;-84
2023/09/19 04:58:03;;;;;;;1.80;1.70;;;;;;;22.28;57.01;98514.19;6839627;29;20194;-85
2023/09/19 05:01:25;;;;;;;2.10;1.90;;;;;;;21.98;57.33;98519.91;6837566;29;20217;-85
2023/09/19 05:04:47;;;;;;;3.77;1.70;;;;;;;21.99;57.45;98521.53;6841023;29;20740;-84
2023/09/19 05:08:09;;;;;;;2.30;1.63;;;;;;;22.02;57.58;98521.78;6838004;29;20357;-85
2023/09/19 05:11:32;;;;;;;1.60;1.50;;;;;;;22.12;57.69;98518.16;6837563;29;20235;-84
2023/09/19 05:14:53;;;;;;;2.20;1.70;;;;;;;22.38;57.62;98525.09;6837705;28;20216;-84
2023/09/19 05:18:15;;;;;;;1.50;1.40;;;;;;;22.49;56.85;98511.00;6839070;29;20299;-85
2023/09/19 05:21:36;;;;;;;2.37;1.90;;;;;;;22.65;57.77;98544.69;6837045;29;20269;-83
2023/09/19 05:24:58;;;;;;;2.70;1.97;;;;;;;22.74;57.68;98545.69;6838110;29;20213;-84
2023/09/19 05:28:21;;;;;;;2.90;2.10;;;;;;;22.55;58.92;98542.81;6838164;28;20284;-84
2023/09/19 05:31:43;;;;;;;2.33;1.73;;;;;;;22.35;60.48;98551.19;6861606;28;20281;-84
2023/09/19 05:35:08;;;;;;;2.00;1.73;;;;;;;22.17;60.41;98556.56;6868404;28;20210;-84
2023/09/19 05:38:29;;;;;;;4.97;2.90;;;;;;;22.08;60.39;98547.28;6868255;28;20198;-83
2023/09/19 05:41:51;;;;;;;4.20;2.13;;;;;;;22.56;60.09;98554.63;6878387;28;20231;-84
2023/09/19 05:45:18;;;;;;;2.50;2.30;;;;;;;22.11;60.02;98494.53;6886723;28;20679;-84
2023/09/19 05:48:41;;;;;;;2.00;1.80;;;;;;;22.23;60.73;98563.66;6891630;28;20324;-84
2023/09/19 05:52:03;;;;;;;3.40;1.60;;;;;;;21.77;61.79;98554.09;6890319;28;20257;-84
2023/09/19 05:55:25;;;;;;;2.20;2.03;;;;;;;21.39;63.78;98585.78;6891413;28;20216;-84
2023/09/19 05:58:46;;;;;;;2.60;2.00;;;;;;;21.33;63.75;98606.09;6892191;28;20209;-84
2023/09/19 06:02:09;;;;;;;3.27;2.03;;;;;;;21.04;65.07;98620.69;6886171;28;20233;-84
2023/09/19 06:05:31;;;;;;;3.03;2.07;;;;;;;20.30;65.69;98618.72;6866829;28;20205;-84
2023/09/19 06:08:53;;;;;;;4.50;1.80;;;;;;;20.64;64.27;98611.63;6866601;28;20225;-83
2023/09/19 06:12:17;;;;;;;3.07;2.03;;;;;;;20.95;64.18;98635.22;6864972;28;20265;-83
2023/09/19 06:15:40;;;;;;;6.47;2.67;;;;;;;20.46;64.99;98612.19;6867054;28;20197;-83
2023/09/19 06:19:03;;;;;;;2.77;2.10;;;;;;;20.47;65.08;98642.06;6869186;28;20265;-82
2023/09/19 06:22:25;;;;;;;2.57;2.30;;;;;;;19.76;63.62;98554.56;6871342;28;20236;-83
2023/09/19 06:25:46;;;;;;;2.40;2.20;;;;;;;20.60;63.05;98657.94;6871671;28;20668;-83
2023/09/19 06:29:08;;;;;;;4.40;2.60;;;;;;;20.46;62.95;98656.00;6872581;28;20210;-83
2023/09/19 06:32:29;;;;;;;3.90;2.50;;;;;;;20.84;62.84;98654.38;6873033;28;20260;-83
2023/09/19 06:35:58;;;;;;;5.03;2.93;;;;;;;20.24;63.89;98658.16;6867550;28;20204;-83
2023/09/19 06:39:22;;;;;;;5.47;2.43;;;;;;;20.46;62.89;98664.22;6866530;28;20212;-83
2023/09/19 06:42:46;;;;;;;6.00;2.80;;;;;;;20.37;63.12;98635.72;6866897;28;20232;-84
2023/09/19 06:46:08;;;;;;;4.40;2.63;;;;;;;20.61;62.56;98648.63;6867308;28;20205;-84
2023/09/19 06:49:30;;;;;;;3.13;2.37;;;;;;;21.02;62.66;98663.16;6865779;28;20220;-84
2023/09/19 06:52:54;;;;;;;3.73;2.50;;;;;;;21.17;62.27;98655.75;6863241;28;20242;-84
2023/09/19 06:56:16;;;;;;;4.33;2.83;;;;;;;20.82;64.10;98658.47;6863762;28;20216;-84
2023/09/19 06:59:38;;;;;;;2.97;2.63;;;;;;;21.14;63.22;98657.13;6863321;28;20206;-84
2023/09/19 07:03:03;;;;;;;3.07;2.40;;;;;;;21.34;62.15;98670.81;6862569;28;20319;-84
2023/09/19 07:06:25;;;;;;;4.47;2.90;;;;;;;21.39;61.56;98621.44;6863171;28;20668;-84
2023/09/19 07:09:48;;;;;;;3.30;2.47;;;;;;;21.97;61.00;98661.88;6862068;28;20237;-84
2023/09/19 07:13:10;;;;;;;3.10;2.37;;;;;;;21.78;61.54;98669.06;6861163;28;20232;-84
2023/09/19 07:16:32;;;;;;;3.43;2.23;;;;;;;21.88;60.42;98671.78;6862423;28;20210;-85
2023/09/19 07:19:53;;;;;;;3.37;2.87;;;;;;;22.33;60.34;98665.22;6862695;28;20344;-84
2023/09/19 07:23:15;;;;;;;3.33;2.67;;;;;;;22.84;59.01;98677.56;6861373;28;20284;-84
2023/09/19 07:26:39;;;;;;;3.47;2.30;;;;;;;22.86;59.00;98681.66;6862104;28;20292;-84
2023/09/19 07:30:01;;;;;;;4.37;2.40;;;;;;;23.20;56.81;98682.47;6860131;28;20211;-84
2023/09/19 07:33:24;;;;;;;3.20;2.30;;;;;;;22.63;57.78;98679.63;6861476;28;20231;-84
2023/09/19 07:36:47;;;;;;;3.40;2.57;;;;;;;22.96;57.27;98683.50;6862368;28;20296;-84
2023/09/19 07:40:09;;;;;;;3.60;2.53;;;;;;;22.78;58.66;98678.69;6867090;28;20218;-84
2023/09/19 07:43:33;;;;;;;3.87;2.20;;;;;;;22.87;57.93;98672.31;6866415;28;20721;-84
2023/09/19 07:46:54;;;;;;;2.40;2.10;;;;;;;22.85;58.10;98698.44;6870126;28;20215;-84
2023/09/19 07:50:18;;;;;;;3.20;2.17;;;;;;;22.72;56.59;98658.66;6871923;28;20688;-85
2023/09/19 07:53:40;;;;;;;3.80;2.30;;;;;;;22.79;56.25;98694.91;6872411;28;20633;-84
2023/09/19 07:57:01;;;;;;;3.47;1.90;;;;;;;23.64;56.02;98683.16;6871856;28;20211;-83
2023/09/19 08:00:24;;;;;;;2.97;2.07;;;;;;;23.51;54.73;98699.53;6872272;28;20221;-83
2023/09/19 08:03:45;;;;;;;2.73;2.50;;;;;;;22.86;56.47;98632.16;6871750;28;20313;-83
2023/09/19 08:07:09;;;;;;;4.23;1.90;;;;;;;24.12;55.33;98704.06;6873338;28;20208;-83
2023/09/19 08:10:35;;;;;;;3.57;2.10;;;;;;;24.19;53.19;98704.53;6873379;28;20216;-85
2023/09/19 08:13:56;;;;;;;2.33;2.07;;;;;;;24.63;53.22;98691.28;6871916;28;20270;-83
2023/09/19 08:17:19;;;;;;;4.67;2.47;;;;;;;24.05;52.47;98708.28;6872787;28;20255;-84
2023/09/19 08:20:42;;;;;;;2.77;1.97;;;;;;;24.53;51.56;98715.38;6872179;28;20297;-84
2023/09/19 08:24:05;;;;;;;4.03;2.00;;;;;;;24.28;51.78;98708.28;6872172;28;20305;-84
2023/09/19 08:27:27;;;;;;;5.73;2.30;;;;;;;24.31;51.45;98644.28;6872622;28;20218;-83
2023/09/19 08:30:49;;;;;;;1.80;1.53;;;;;;;25.05;50.83;98707.72;6871356;28;20206;-83
2023/09/19 08:34:12;;;;;;;3.40;2.27;;;;;;;25.73;49.44;98714.25;6872985;28;20690;-84
2023/09/19 08:37:33;;;;;;;3.03;2.07;;;;;;;25.84;48.29;98706.63;6873321;28;20212;-83
2023/09/19 08:40:55;;;;;;;3.40;2.03;;;;;;;25.25;50.42;98712.13;6872128;28;20225;-84
2023/09/19 08:44:17;;;;;;;3.50;1.80;;;;;;;25.69;46.72;98713.25;6874396;28;20231;-85
2023/09/19 08:47:46;;;;;;;4.07;2.00;;;;;;;25.72;47.29;98706.28;6893349;28;20201;-85
2023/09/19 08:51:11;;;;;;;1.87;1.70;;;;;;;25.59;45.76;98718.94;6890270;28;20203;-84
2023/09/19 08:54:38;;;;;;;2.10;1.60;;;;;;;25.10;47.60;98717.84;6884585;28;20232;-85
2023/09/19 08:58:02;;;;;;;2.70;1.67;;;;;;;25.36;47.85;98728.19;6864182;28;20190;-84
2023/09/19 09:01:25;;;;;;;3.00;1.67;;;;;;;25.21;46.88;98733.13;6863225;28;20261;-84
2023/09/19 09:04:47;;;;;;;2.50;2.30;;;;;;;24.97;48.47;98741.53;6863793;28;20209;-85
2023/09/19 09:08:11;;;;;;;3.17;2.20;;;;;;;24.88;48.25;98742.47;6864274;28;20217;-84
2023/09/19 09:11:34;;;;;;;3.10;1.60;;;;;;;24.62;48.39;98743.97;6863348;28;20726;-85
2023/09/19 09:14:57;;;;;;;4.87;1.80;;;;;;;24.97;48.61;98733.25;6863802;28;20271;-85
2023/09/19 09:18:18;;;;;;;2.10;1.90;;;;;;;25.49;47.13;98732.94;6864954;28;20581;-86
2023/09/19 09:21:40;;;;;;;2.00;1.83;;;;;;;25.86;46.19;98704.34;6882210;28;20229;-86
2023/09/19 09:25:04;;;;;;;2.23;1.70;;;;;;;25.98;45.42;98733.16;6888279;28;20206;-84
2023/09/19 09:28:27;;;;;;;2.70;1.50;;;;;;;25.69;45.53;98693.06;6883091;28;20687;-85
2023/09/19 09:31:49;;;;;;;1.50;1.33;;;;;;;26.31;44.42;98731.09;6864067;28;20869;-86
2023/09/19 09:35:14;;;;;;;1.97;1.50;;;;;;;25.19;44.54;98747.22;6861685;28;20217;-85
2023/09/19 09:38:45;;;;;;;2.33;1.80;;;;;;;25.77;44.26;98740.16;6836256;29;20207;-84
2023/09/19 09:42:10;;;;;;;2.03;1.83;;;;;;;25.64;43.88;98723.53;6854817;28;20227;-85
2023/09/19 09:45:38;;;;;;;1.93;1.50;;;;;;;25.88;43.96;98747.13;6863103;28;20219;-86
2023/09/19 09:52:49;;;;;;;2.40;1.80;;;;;;;25.67;40.65;98734.00;6815786;28;20222;-85
2023/09/19 09:56:12;;;;;;;2.60;1.80;;;;;;;25.45;41.26;98720.03;6869231;28;20215;-85
2023/09/19 09:59:47;;;;;;;1.53;1.43;;;;;;;25.29;39.29;98741.56;6862584;28;20212;-86
2023/09/19 10:03:21;;;;;;;2.40;1.87;;;;;;;25.31;40.49;98728.28;6861553;28;20239;-85
2023/09/19 10:06:47;;;;;;;4.43;2.10;;;;;;;25.32;38.52;98663.66;6862525;28;20194;-84
2023/09/19 10:10:21;;;;;;;2.90;1.73;;;;;;;25.91;38.86;98729.16;6862390;28;20203;-85
2023/09/19 10:13:43;;;;;;;1.80;1.50;;;;;;;25.98;38.42;98688.13;6861940;28;20236;-85
2023/09/19 10:17:11;;;;;;;2.20;1.43;;;;;;;26.18;37.81;98727.22;6862699;28;20217;-86
2023/09/19 10:20:38;;;;;;;2.20;1.60;;;;;;;25.49;38.09;98721.09;6861836;28;20279;-86
2023/09/19 10:24:00;;;;;;;1.87;1.60;;;;;;;26.08;38.08;98719.13;6861885;28;20225;-86
2023/09/19 10:27:22;;;;;;;1.67;1.57;;;;;;;27.01;37.29;98697.13;6862288;28;20220;-85
2023/09/19 10:30:47;;;;;;;2.77;2.10;;;;;;;26.92;36.21;98709.28;6861051;28;20205;-85
2023/09/19 10:34:10;;;;;;;2.43;1.60;;;;;;;26.21;36.52;98700.91;6861451;28;20287;-84
2023/09/19 10:37:32;;;;;;;2.03;1.60;;;;;;;26.01;37.04;98715.16;6862493;28;20201;-85
2023/09/19 10:40:56;;;;;;;1.63;1.43;;;;;;;26.20;37.94;98718.63;6862146;28;20275;-86
2023/09/19 10:44:20;;;;;;;3.97;2.10;;;;;;;26.34;36.69;98702.81;6861548;28;20235;-86
2023/09/19 10:47:42;;;;;;;2.90;1.63;;;;;;;26.56;37.14;98719.53;6861751;28;20213;-86
2023/09/19 10:51:09;;;;;;;2.10;1.90;;;;;;;26.38;36.41;98692.78;6861116;28;20209;-85
2023/09/19 10:54:36;;;;;;;2.03;1.70;;;;;;;26.35;37.44;98734.88;6862216;28;20240;-85
2023/09/19 10:58:14;;;;;;;2.13;1.60;;;;;;;25.94;38.09;98718.31;6862272;28;20197;-86
2023/09/19 11:01:44;;;;;;;2.83;1.67;;;;;;;26.40;37.46;98720.94;6861706;28;20193;-85
2023/09/19 11:05:13;;;;;;;2.10;1.70;;;;;;;26.49;36.71;98714.38;6861661;28;20287;-85
2023/09/19 11:08:56;;;;;;;2.37;1.80;;;;;;;26.50;36.96;98715.19;6862836;28;20196;-83
2023/09/19 11:12:52;;;;;;;2.40;1.70;;;;;;;26.24;37.21;98709.41;6864359;28;20274;-86
2023/09/19 11:16:23;;;;;;;2.17;1.80;;;;;;;26.50;37.35;98696.66;6871085;28;20207;-85
2023/09/19 11:24:35;;;;;;;2.63;1.70;;;;;;;26.93;36.93;98686.81;6850206;28;20231;-85
2023/09/19 11:28:39;;;;;;;2.27;1.70;;;;;;;27.93;34.95;98688.94;6870210;28;20197;-85
2023/09/19 11:32:00;;;;;;;1.73;1.63;;;;;;;28.16;34.28;98680.22;6870002;28;20796;-85
2023/09/19 11:35:22;;;;;;;2.63;1.70;;;;;;;28.17;34.04;98679.09;6870791;28;20240;-85
2023/09/19 11:39:08;;;;;;;2.73;1.63;;;;;;;27.93;34.22;98687.00;6870127;28;20213;-85
2023/09/19 11:42:53;;;;;;;1.87;1.77;;;;;;;27.82;33.38;98682.88;6877600;28;20263;-85
2023/09/19 11:46:16;;;;;;;3.30;1.57;;;;;;;26.92;35.71;98681.59;6871416;28;20621;-85
2023/09/19 11:49:42;;;;;;;2.53;1.20;;;;;;;27.31;33.97;98682.56;6871125;28;20288;-85
2023/09/19 11:53:05;;;;;;;2.20;1.73;;;;;;;27.74;32.10;98666.19;6869614;28;20237;-85
2023/09/19 11:56:28;;;;;;;2.07;1.50;;;;;;;27.72;33.28;98672.03;6870890;28;20201;-85
2023/09/19 11:59:53;;;;;;;1.50;1.40;;;;;;;27.62;33.13;98685.34;6886878;28;20204;-85
2023/09/19 12:03:15;;;;;;;1.47;1.37;;;;;;;27.51;33.28;98664.59;6900472;28;20222;-84
2023/09/19 12:06:38;;;;;;;1.93;1.50;;;;;;;27.35;33.38;98679.97;6904791;28;20223;-83
2023/09/19 12:10:04;;;;;;;4.37;1.43;;;;;;;26.94;34.02;98638.66;6903880;28;20205;-84
2023/09/19 12:13:26;;;;;;;1.60;1.50;;;;;;;27.56;33.54;98668.06;6853108;28;20253;-84
2023/09/19 12:16:55;;;;;;;4.93;1.77;;;;;;;26.90;33.88;98670.03;6861862;28;20206;-84
2023/09/19 12:20:17;;;;;;;1.20;1.10;;;;;;;27.26;32.99;98665.28;6907170;28;20199;-87
2023/09/19 12:23:41;;;;;;;2.43;1.50;;;;;;;27.47;33.17;98614.56;6905562;28;20228;-83
2023/09/19 12:27:05;;;;;;;2.67;1.70;;;;;;;28.65;32.37;98654.06;6904400;28;20204;-83
2023/09/19 12:30:33;;;;;;;3.27;1.70;;;;;;;28.60;32.16;98654.25;6904755;28;20206;-83
2023/09/19 12:33:56;;;;;;;2.30;1.37;;;;;;;27.88;33.31;98656.66;6905461;28;20235;-83
2023/09/19 12:37:22;;;;;;;2.00;1.63;;;;;;;27.87;33.36;98641.16;6880857;28;20221;-84
2023/09/19 12:40:44;;;;;;;1.87;1.60;;;;;;;28.51;32.93;98643.13;6880193;28;20217;-83
2023/09/19 12:44:09;;;;;;;1.40;1.30;;;;;;;28.47;32.26;98649.63;6880225;28;20787;-83
2023/09/19 12:47:34;;;;;;;1.60;1.43;;;;;;;28.77;33.00;98637.59;6880149;28;20217;-83
2023/09/19 12:51:05;;;;;;;2.17;1.47;;;;;;;28.62;32.09;98647.22;6878664;28;20207;-83
2023/09/19 12:54:39;;;;;;;1.50;1.20;;;;;;;27.93;33.34;98626.03;6878567;28;20225;-83
2023/09/19 12:58:09;;;;;;;2.53;1.63;;;;;;;28.61;32.88;98633.66;6878572;28;20360;-83
2023/09/19 13:01:31;;;;;;;2.40;1.80;;;;;;;28.25;32.97;98636.69;6881527;28;20217;-83
2023/09/19 13:04:53;;;;;;;1.50;1.40;;;;;;;28.60;32.70;98640.38;6866917;28;20217;-84
2023/09/19 13:08:26;;;;;;;2.10;1.50;;;;;;;28.64;33.12;98619.94;6866715;28;20811;-83
2023/09/19 13:11:50;;;;;;;1.57;1.40;;;;;;;28.17;33.50;98620.03;6865336;28;20229;-85
2023/09/19 13:15:15;;;;;;;1.77;1.60;;;;;;;28.17;32.95;98618.09;6865870;28;20237;-84
2023/09/19 13:18:44;;;;;;;1.60;1.40;;;;;;;28.31;32.78;98615.97;6866499;28;20196;-82
2023/09/19 13:22:08;;;;;;;3.00;1.60;;;;;;;27.85;33.56;98614.91;6865515;28;20226;-85
2023/09/19 13:25:33;;;;;;;1.93;1.77;;;;;;;28.10;32.64;98622.47;6865924;28;20582;-84
2023/09/19 13:28:54;;;;;;;1.67;1.47;;;;;;;27.72;33.13;98616.63;6866112;28;20664;-85
2023/09/19 13:32:16;;;;;;;1.60;1.50;;;;;;;27.74;32.49;98628.22;6865706;28;20350;-85
2023/09/19 13:35:38;;;;;;;2.97;1.70;;;;;;;27.87;32.90;98607.06;6865629;28;20312;-84
2023/09/19 13:39:00;;;;;;;1.50;1.40;;;;;;;27.80;33.21;98557.69;6865844;28;20205;-85
2023/09/19 13:42:22;;;;;;;4.03;1.87;;;;;;;28.12;33.01;98603.53;6862167;28;20695;-83
2023/09/19 13:45:44;;;;;;;2.13;1.50;;;;;;;27.68;33.44;98524.22;6888980;28;20286;-84
2023/09/19 13:49:05;;;;;;;2.67;1.30;;;;;;;28.30;32.50;98597.72;6892909;28;20208;-83
2023/09/19 13:52:29;;;;;;;3.03;1.57;;;;;;;28.00;32.73;98592.28;6900047;28;20249;-83
2023/09/19 13:55:50;;;;;;;1.40;1.30;;;;;;;28.18;32.92;98583.66;6919794;28;20216;-84
2023/09/19 13:59:13;;;;;;;1.60;1.43;;;;;;;28.13;34.21;98592.13;6910182;28;20212;-83
2023/09/19 14:02:35;;;;;;;1.93;1.70;;;;;;;28.31;33.20;98596.56;6871028;28;20373;-85
2023/09/19 14:05:57;;;;;;;2.70;1.60;;;;;;;28.14;31.74;98571.59;6862793;28;20314;-85
2023/09/19 14:09:19;;;;;;;2.90;1.80;;;;;;;27.47;31.89;98597.94;6862314;28;20249;-85
2023/09/19 14:12:41;;;;;;;1.60;1.50;;;;;;;27.78;32.57;98584.88;6861365;28;20280;-85
2023/09/19 14:16:05;;;;;;;2.17;1.77;;;;;;;27.57;32.44;98508.19;6862374;28;20668;-85
2023/09/19 14:19:27;;;;;;;1.97;1.70;;;;;;;27.91;33.31;98594.22;6862193;28;20210;-85
2023/09/19 14:22:49;;;;;;;3.50;1.40;;;;;;;28.32;32.62;98586.31;6861199;28;20237;-85
2023/09/19 14:26:11;;;;;;;2.53;1.80;;;;;;;28.92;32.06;98590.72;6862254;28;20304;-85
2023/09/19 14:29:32;;;;;;;4.47;1.80;;;;;;;28.00;32.47;98586.72;6861741;28;20303;-83
2023/09/19 14:32:55;;;;;;;3.50;1.67;;;;;;;27.53;32.40;98588.34;6861549;28;20253;-85
2023/09/19 14:36:18;;;;;;;1.50;1.40;;;;;;;27.42;32.51;98584.22;6863325;28;20233;-84
2023/09/19 14:39:44;;;;;;;1.50;1.40;;;;;;;26.96;33.48;98533.97;6862705;28;20209;-85
2023/09/19 14:43:08;;;;;;;2.90;1.77;;;;;;;27.72;32.69;98561.19;6862118;28;20225;-85
2023/09/19 14:46:30;;;;;;;1.83;1.50;;;;;;;27.64;32.26;98573.09;6861615;28;20208;-85
2023/09/19 14:49:52;;;;;;;1.60;1.50;;;;;;;27.88;32.14;98572.69;6861263;28;20741;-85
2023/09/19 14:53:14;;;;;;;2.77;2.00;;;;;;;27.01;33.69;98557.94;6861847;28;20233;-85
2023/09/19 14:56:36;;;;;;;1.80;1.70;;;;;;;27.32;32.98;98558.78;6864396;28;20212;-85
2023/09/19 14:59:57;;;;;;;1.70;1.40;;;;;;;27.37;32.81;98558.66;6862884;28;20290;-84
2023/09/19 15:03:19;;;;;;;1.83;1.50;;;;;;;27.59;32.99;98526.13;6862008;28;20229;-84
2023/09/19 15:06:42;;;;;;;3.27;1.63;;;;;;;28.21;32.27;98554.47;6862468;28;20217;-85
2023/09/19 15:10:06;;;;;;;2.57;1.70;;;;;;;28.00;31.82;98543.19;6862313;28;20300;-83
2023/09/19 15:13:29;;;;;;;1.60;1.23;;;;;;;27.77;32.05;98563.84;6860235;28;20265;-85
2023/09/19 15:16:50;;;;;;;2.17;1.80;;;;;;;28.10;32.35;98558.69;6861596;28;20664;-85
2023/09/19 15:20:13;;;;;;;2.80;1.70;;;;;;;28.02;32.64;98548.44;6866257;28;20247;-83
2023/09/19 15:23:37;;;;;;;3.17;1.70;;;;;;;27.52;32.53;98547.94;6866313;28;20232;-85
2023/09/19 15:26:59;;;;;;;2.23;1.77;;;;;;;27.59;32.57;98553.00;6866052;28;20232;-84
2023/09/19 15:30:20;;;;;;;3.10;1.73;;;;;;;27.75;32.52;98566.13;6866214;28;20572;-84
2023/09/19 15:33:42;;;;;;;1.70;1.50;;;;;;;27.95;32.14;98559.19;6865420;28;20332;-84
2023/09/19 15:37:04;;;;;;;2.93;1.83;;;;;;;27.71;32.70;98547.69;6864444;28;20216;-83
2023/09/19 15:40:27;;;;;;;3.17;1.80;;;;;;;27.46;32.58;98493.84;6865442;28;20221;-83
2023/09/19 15:43:49;;;;;;;1.70;1.60;;;;;;;27.60;33.08;98488.19;6864612;28;20240;-83
2023/09/19 15:47:11;;;;;;;1.87;1.77;;;;;;;27.63;33.04;98540.97;6864274;28;20723;-84
2023/09/19 15:50:32;;;;;;;1.70;1.40;;;;;;;27.89;32.76;98539.09;6862958;28;20221;-85
2023/09/19 15:53:55;;;;;;;1.60;1.37;;;;;;;27.88;31.18;98482.06;6854919;28;20376;-83
2023/09/19 15:57:18;;;;;;;1.60;1.50;;;;;;;27.76;32.28;98537.25;6856874;28;20279;-84
2023/09/19 16:00:41;;;;;;;3.20;1.47;;;;;;;27.34;32.85;98535.19;6865838;28;20241;-84
2023/09/19 16:04:03;;;;;;;1.37;1.17;;;;;;;27.51;32.87;98534.41;6867627;28;20233;-83
2023/09/19 16:07:24;;;;;;;2.13;1.37;;;;;;;27.51;33.11;98539.94;6867819;28;20300;-84
2023/09/19 16:10:48;;;;;;;1.57;1.47;;;;;;;27.29;33.60;98531.72;6866629;28;20272;-84